sensor_id;sensor_type;location;lat;lon;timestamp;pressure;altitude;pressure_sealevel;temperature;humidity
60583;BME280;46415;47.536;19.066;2024-01-15T00:01:05;-18211.88;;;-0.65;100.00
60583;BME280;46415;47.536;19.066;2024-01-15T00:04:08;-18212.72;;;-0.62;100.00
60583;BME280;46415;47.536;19.066;2024-01-15T00:07:11;-18213.00;;;-0.61;100.00
60583;BME280;46415;47.536;19.066;2024-01-15T00:10:14;-18213.81;;;-0.58;100.00
60583;BME280;46415;47.536;19.066;2024-01-15T00:13:17;-18216.56;;;-0.48;100.00
60583;BME280;46415;47.536;19.066;2024-01-15T00:16:20;-18216.44;;;-0.48;100.00
60583;BME280;46415;47.536;19.066;2024-01-15T00:19:23;-18215.34;;;-0.52;100.00
60583;BME280;46415;47.536;19.066;2024-01-15T00:22:27;-18216.56;;;-0.48;100.00
60583;BME280;46415;47.536;19.066;2024-01-15T00:25:30;-18216.56;;;-0.48;100.00
60583;BME280;46415;47.536;19.066;2024-01-15T00:28:33;-18217.28;;;-0.45;100.00
60583;BME280;46415;47.536;19.066;2024-01-15T00:31:35;-18220.59;;;-0.33;100.00
60583;BME280;46415;47.536;19.066;2024-01-15T00:34:39;-18220.44;;;-0.33;100.00
60583;BME280;46415;47.536;19.066;2024-01-15T00:37:42;-18223.75;;;-0.21;100.00
60583;BME280;46415;47.536;19.066;2024-01-15T00:40:45;-18223.19;;;-0.23;100.00
60583;BME280;46415;47.536;19.066;2024-01-15T00:43:47;-18221.00;;;-0.31;100.00
60583;BME280;46415;47.536;19.066;2024-01-15T00:46:53;-18222.25;;;-0.27;100.00
60583;BME280;46415;47.536;19.066;2024-01-15T00:49:56;-18223.47;;;-0.22;100.00
60583;BME280;46415;47.536;19.066;2024-01-15T00:52:59;-18221.28;;;-0.30;100.00
60583;BME280;46415;47.536;19.066;2024-01-15T00:56:01;-18222.66;;;-0.25;100.00
60583;BME280;46415;47.536;19.066;2024-01-15T00:59:06;-18224.31;;;-0.19;100.00
60583;BME280;46415;47.536;19.066;2024-01-15T01:02:09;-18222.94;;;-0.24;100.00
60583;BME280;46415;47.536;19.066;2024-01-15T01:05:12;-18221.53;;;-0.29;100.00
60583;BME280;46415;47.536;19.066;2024-01-15T01:08:15;-18220.44;;;-0.33;100.00
60583;BME280;46415;47.536;19.066;2024-01-15T01:11:18;-18220.16;;;-0.34;100.00
60583;BME280;46415;47.536;19.066;2024-01-15T01:14:21;-18221.00;;;-0.31;100.00
60583;BME280;46415;47.536;19.066;2024-01-15T01:17:25;-18220.72;;;-0.32;100.00
60583;BME280;46415;47.536;19.066;2024-01-15T01:20:28;-18221.28;;;-0.30;100.00
60583;BME280;46415;47.536;19.066;2024-01-15T01:23:31;-18221.81;;;-0.28;100.00
60583;BME280;46415;47.536;19.066;2024-01-15T01:26:34;-18221.13;;;-0.31;100.00
60583;BME280;46415;47.536;19.066;2024-01-15T01:29:37;-18220.59;;;-0.33;100.00
60583;BME280;46415;47.536;19.066;2024-01-15T01:32:39;-18219.34;;;-0.37;100.00
60583;BME280;46415;47.536;19.066;2024-01-15T01:35:42;-18219.47;;;-0.37;100.00
60583;BME280;46415;47.536;19.066;2024-01-15T01:38:46;-18220.03;;;-0.35;100.00
60583;BME280;46415;47.536;19.066;2024-01-15T01:41:49;-18219.63;;;-0.36;100.00
60583;BME280;46415;47.536;19.066;2024-01-15T01:44:52;-18217.97;;;-0.43;100.00
60583;BME280;46415;47.536;19.066;2024-01-15T01:47:55;-18216.03;;;-0.50;100.00
60583;BME280;46415;47.536;19.066;2024-01-15T01:50:59;-18214.09;;;-0.57;100.00
60583;BME280;46415;47.536;19.066;2024-01-15T01:54:04;-18211.06;;;-0.68;100.00
60583;BME280;46415;47.536;19.066;2024-01-15T01:57:07;-18208.44;;;-0.77;100.00
60583;BME280;46415;47.536;19.066;2024-01-15T02:00:11;-18209.69;;;-0.73;100.00
60583;BME280;46415;47.536;19.066;2024-01-15T02:03:15;-18206.91;;;-0.83;100.00
60583;BME280;46415;47.536;19.066;2024-01-15T02:06:18;-18207.34;;;-0.82;100.00
60583;BME280;46415;47.536;19.066;2024-01-15T02:09:21;-18209.69;;;-0.73;100.00
60583;BME280;46415;47.536;19.066;2024-01-15T02:12:24;-18210.50;;;-0.70;100.00
60583;BME280;46415;47.536;19.066;2024-01-15T02:15:27;-18209.41;;;-0.74;100.00
60583;BME280;46415;47.536;19.066;2024-01-15T02:18:39;-18209.53;;;-0.73;100.00
60583;BME280;46415;47.536;19.066;2024-01-15T02:21:43;-18206.66;;;-0.84;100.00
60583;BME280;46415;47.536;19.066;2024-01-15T02:24:46;-18203.06;;;-0.97;100.00
60583;BME280;46415;47.536;19.066;2024-01-15T02:27:49;-18200.03;;;-1.08;100.00
60583;BME280;46415;47.536;19.066;2024-01-15T02:30:52;-18199.75;;;-1.09;100.00
60583;BME280;46415;47.536;19.066;2024-01-15T02:33:56;-18197.25;;;-1.18;100.00
60583;BME280;46415;47.536;19.066;2024-01-15T02:37:02;-18194.50;;;-1.29;100.00
60583;BME280;46415;47.536;19.066;2024-01-15T02:40:05;-18191.72;;;-1.39;100.00
60583;BME280;46415;47.536;19.066;2024-01-15T02:43:08;-18189.25;;;-1.48;100.00
60583;BME280;46415;47.536;19.066;2024-01-15T02:46:11;-18186.34;;;-1.58;100.00
60583;BME280;46415;47.536;19.066;2024-01-15T02:49:14;-18186.47;;;-1.58;100.00
60583;BME280;46415;47.536;19.066;2024-01-15T02:52:18;-18185.25;;;-1.62;100.00
60583;BME280;46415;47.536;19.066;2024-01-15T02:55:20;-18182.75;;;-1.72;100.00
60583;BME280;46415;47.536;19.066;2024-01-15T02:58:24;-18181.22;;;-1.77;100.00
60583;BME280;46415;47.536;19.066;2024-01-15T03:01:27;-18177.50;;;-1.91;100.00
60583;BME280;46415;47.536;19.066;2024-01-15T03:04:29;-18173.78;;;-2.04;100.00
60583;BME280;46415;47.536;19.066;2024-01-15T03:07:33;-18171.28;;;-2.14;100.00
60583;BME280;46415;47.536;19.066;2024-01-15T03:10:36;-18170.47;;;-2.17;100.00
60583;BME280;46415;47.536;19.066;2024-01-15T03:13:39;-18170.59;;;-2.16;100.00
60583;BME280;46415;47.536;19.066;2024-01-15T03:16:42;-18169.78;;;-2.19;100.00
60583;BME280;46415;47.536;19.066;2024-01-15T03:19:45;-18171.00;;;-2.15;100.00
60583;BME280;46415;47.536;19.066;2024-01-15T03:22:48;-18175.28;;;-1.99;100.00
60583;BME280;46415;47.536;19.066;2024-01-15T03:25:51;-18175.28;;;-1.99;100.00
60583;BME280;46415;47.536;19.066;2024-01-15T03:28:54;-18174.75;;;-2.01;100.00
60583;BME280;46415;47.536;19.066;2024-01-15T03:31:57;-18174.59;;;-2.01;100.00
60583;BME280;46415;47.536;19.066;2024-01-15T03:35:00;-18174.06;;;-2.03;100.00
60583;BME280;46415;47.536;19.066;2024-01-15T03:38:03;-18175.72;;;-1.97;100.00
60583;BME280;46415;47.536;19.066;2024-01-15T03:41:06;-18176.81;;;-1.93;100.00
60583;BME280;46415;47.536;19.066;2024-01-15T03:44:09;-18176.81;;;-1.93;100.00
60583;BME280;46415;47.536;19.066;2024-01-15T03:47:12;-18175.44;;;-1.98;100.00
60583;BME280;46415;47.536;19.066;2024-01-15T03:50:15;-18177.22;;;-1.92;100.00
60583;BME280;46415;47.536;19.066;2024-01-15T03:53:18;-18177.22;;;-1.92;100.00
60583;BME280;46415;47.536;19.066;2024-01-15T03:56:21;-18179.03;;;-1.85;100.00
60583;BME280;46415;47.536;19.066;2024-01-15T03:59:24;-18179.31;;;-1.84;100.00
60583;BME280;46415;47.536;19.066;2024-01-15T04:02:27;-18178.75;;;-1.86;100.00
60583;BME280;46415;47.536;19.066;2024-01-15T04:05:30;-18175.97;;;-1.96;100.00
60583;BME280;46415;47.536;19.066;2024-01-15T04:08:33;-18173.78;;;-2.04;100.00
60583;BME280;46415;47.536;19.066;2024-01-15T04:11:36;-18172.25;;;-2.10;100.00
60583;BME280;46415;47.536;19.066;2024-01-15T04:14:39;-18168.25;;;-2.25;100.00
60583;BME280;46415;47.536;19.066;2024-01-15T04:17:42;-18164.66;;;-2.38;100.00
60583;BME280;46415;47.536;19.066;2024-01-15T04:20:45;-18162.44;;;-2.46;100.00
60583;BME280;46415;47.536;19.066;2024-01-15T04:23:48;-18160.22;;;-2.54;100.00
60583;BME280;46415;47.536;19.066;2024-01-15T04:26:51;-18157.47;;;-2.64;100.00
60583;BME280;46415;47.536;19.066;2024-01-15T04:29:54;-18155.69;;;-2.71;100.00
60583;BME280;46415;47.536;19.066;2024-01-15T04:32:57;-18155.13;;;-2.73;100.00
60583;BME280;46415;47.536;19.066;2024-01-15T04:36:04;-18154.84;;;-2.74;100.00
60583;BME280;46415;47.536;19.066;2024-01-15T04:39:08;-18153.75;;;-2.78;100.00
60583;BME280;46415;47.536;19.066;2024-01-15T04:42:11;-18152.50;;;-2.82;100.00
60583;BME280;46415;47.536;19.066;2024-01-15T04:45:14;-18152.22;;;-2.83;100.00
60583;BME280;46415;47.536;19.066;2024-01-15T04:48:17;-18150.56;;;-2.90;100.00
60583;BME280;46415;47.536;19.066;2024-01-15T04:51:20;-18148.34;;;-2.98;100.00
60583;BME280;46415;47.536;19.066;2024-01-15T04:54:23;-18146.97;;;-3.03;100.00
60583;BME280;46415;47.536;19.066;2024-01-15T04:57:26;-18147.25;;;-3.02;100.00
60583;BME280;46415;47.536;19.066;2024-01-15T05:00:29;-18145.31;;;-3.09;100.00
60583;BME280;46415;47.536;19.066;2024-01-15T05:03:31;-18147.81;;;-3.00;100.00
60583;BME280;46415;47.536;19.066;2024-01-15T05:06:34;-18148.63;;;-2.97;100.00
60583;BME280;46415;47.536;19.066;2024-01-15T05:09:37;-18150.84;;;-2.89;100.00
60583;BME280;46415;47.536;19.066;2024-01-15T05:12:40;-18150.28;;;-2.91;100.00
60583;BME280;46415;47.536;19.066;2024-01-15T05:15:43;-18149.47;;;-2.94;100.00
60583;BME280;46415;47.536;19.066;2024-01-15T05:18:46;-18148.75;;;-2.96;100.00
60583;BME280;46415;47.536;19.066;2024-01-15T05:21:50;-18149.47;;;-2.94;100.00
60583;BME280;46415;47.536;19.066;2024-01-15T05:24:53;-18149.59;;;-2.93;100.00
60583;BME280;46415;47.536;19.066;2024-01-15T05:27:56;-18148.22;;;-2.98;100.00
60583;BME280;46415;47.536;19.066;2024-01-15T05:30:59;-18148.22;;;-2.98;100.00
60583;BME280;46415;47.536;19.066;2024-01-15T05:34:02;-18148.06;;;-2.99;100.00
60583;BME280;46415;47.536;19.066;2024-01-15T05:37:05;-18147.53;;;-3.01;100.00
60583;BME280;46415;47.536;19.066;2024-01-15T05:40:09;-18147.53;;;-3.01;100.00
60583;BME280;46415;47.536;19.066;2024-01-15T05:43:12;-18145.44;;;-3.08;100.00
60583;BME280;46415;47.536;19.066;2024-01-15T05:46:16;-18145.59;;;-3.08;100.00
60583;BME280;46415;47.536;19.066;2024-01-15T05:49:19;-18145.03;;;-3.10;100.00
60583;BME280;46415;47.536;19.066;2024-01-15T05:52:22;-18144.75;;;-3.11;100.00
60583;BME280;46415;47.536;19.066;2024-01-15T05:55:25;-18144.63;;;-3.11;100.00
60583;BME280;46415;47.536;19.066;2024-01-15T05:58:27;-18146.97;;;-3.03;100.00
60583;BME280;46415;47.536;19.066;2024-01-15T06:01:32;-18147.53;;;-3.01;100.00
60583;BME280;46415;47.536;19.066;2024-01-15T06:04:35;-18148.91;;;-2.96;100.00
60583;BME280;46415;47.536;19.066;2024-01-15T06:07:38;-18149.87;;;-2.92;100.00
60583;BME280;46415;47.536;19.066;2024-01-15T06:10:41;-18147.66;;;-3.00;100.00
60583;BME280;46415;47.536;19.066;2024-01-15T06:13:43;-18147.81;;;-3.00;100.00
60583;BME280;46415;47.536;19.066;2024-01-15T06:16:46;-18148.75;;;-2.96;100.00
60583;BME280;46415;47.536;19.066;2024-01-15T06:19:49;-18149.72;;;-2.93;100.00
60583;BME280;46415;47.536;19.066;2024-01-15T06:22:52;-18150.00;;;-2.92;100.00
60583;BME280;46415;47.536;19.066;2024-01-15T06:25:55;-18150.84;;;-2.89;100.00
60583;BME280;46415;47.536;19.066;2024-01-15T06:28:58;-18152.09;;;-2.84;100.00
60583;BME280;46415;47.536;19.066;2024-01-15T06:32:01;-18152.78;;;-2.81;100.00
60583;BME280;46415;47.536;19.066;2024-01-15T06:35:04;-18153.06;;;-2.80;100.00
60583;BME280;46415;47.536;19.066;2024-01-15T06:38:07;-18153.88;;;-2.77;100.00
60583;BME280;46415;47.536;19.066;2024-01-15T06:41:10;-18154.44;;;-2.75;100.00
60583;BME280;46415;47.536;19.066;2024-01-15T06:44:13;-18157.19;;;-2.65;100.00
60583;BME280;46415;47.536;19.066;2024-01-15T06:47:16;-18158.16;;;-2.62;100.00
60583;BME280;46415;47.536;19.066;2024-01-15T06:50:19;-18160.22;;;-2.54;100.00
60583;BME280;46415;47.536;19.066;2024-01-15T06:53:23;-18161.63;;;-2.49;100.00
60583;BME280;46415;47.536;19.066;2024-01-15T06:56:25;-18163.56;;;-2.42;100.00
60583;BME280;46415;47.536;19.066;2024-01-15T06:59:28;-18165.91;;;-2.33;100.00
60583;BME280;46415;47.536;19.066;2024-01-15T07:02:31;-18167.41;;;-2.28;100.00
60583;BME280;46415;47.536;19.066;2024-01-15T07:05:34;-18168.81;;;-2.23;100.00
60583;BME280;46415;47.536;19.066;2024-01-15T07:08:39;-18169.22;;;-2.21;100.00
60583;BME280;46415;47.536;19.066;2024-01-15T07:11:46;-18171.44;;;-2.13;100.00
60583;BME280;46415;47.536;19.066;2024-01-15T07:14:49;-18174.31;;;-2.02;100.00
60583;BME280;46415;47.536;19.066;2024-01-15T07:17:52;-18177.09;;;-1.92;100.00
60583;BME280;46415;47.536;19.066;2024-01-15T07:20:56;-18177.09;;;-1.92;100.00
60583;BME280;46415;47.536;19.066;2024-01-15T07:23:59;-18179.84;;;-1.82;100.00
60583;BME280;46415;47.536;19.066;2024-01-15T07:27:02;-18181.66;;;-1.76;100.00
60583;BME280;46415;47.536;19.066;2024-01-15T07:30:07;-18180.41;;;-1.80;100.00
60583;BME280;46415;47.536;19.066;2024-01-15T07:33:11;-18180.69;;;-1.79;100.00
60583;BME280;46415;47.536;19.066;2024-01-15T07:36:15;-18183.03;;;-1.71;100.00
60583;BME280;46415;47.536;19.066;2024-01-15T07:39:18;-18186.47;;;-1.58;100.00
60583;BME280;46415;47.536;19.066;2024-01-15T07:42:21;-18182.47;;;-1.73;100.00
60583;BME280;46415;47.536;19.066;2024-01-15T07:45:24;-18181.38;;;-1.77;100.00
60583;BME280;46415;47.536;19.066;2024-01-15T07:48:27;-18180.81;;;-1.79;100.00
60583;BME280;46415;47.536;19.066;2024-01-15T07:51:30;-18180.00;;;-1.82;100.00
60583;BME280;46415;47.536;19.066;2024-01-15T07:54:33;-18180.97;;;-1.78;100.00
60583;BME280;46415;47.536;19.066;2024-01-15T07:57:36;-18181.38;;;-1.77;100.00
60583;BME280;46415;47.536;19.066;2024-01-15T08:00:39;-18181.50;;;-1.76;100.00
60583;BME280;46415;47.536;19.066;2024-01-15T08:03:42;-18182.75;;;-1.72;100.00
60583;BME280;46415;47.536;19.066;2024-01-15T08:06:45;-18185.78;;;-1.60;100.00
60583;BME280;46415;47.536;19.066;2024-01-15T08:09:49;-18192.00;;;-1.38;100.00
60583;BME280;46415;47.536;19.066;2024-01-15T08:12:51;-18198.50;;;-1.14;100.00
60583;BME280;46415;47.536;19.066;2024-01-15T08:15:55;-18208.56;;;-0.77;100.00
60583;BME280;46415;47.536;19.066;2024-01-15T08:18:57;-18216.72;;;-0.47;100.00
60583;BME280;46415;47.536;19.066;2024-01-15T08:22:01;-18225.81;;;-0.14;100.00
60583;BME280;46415;47.536;19.066;2024-01-15T08:25:04;-18233.69;;;0.15;100.00
60583;BME280;46415;47.536;19.066;2024-01-15T08:28:07;-18242.38;;;0.47;100.00
60583;BME280;46415;47.536;19.066;2024-01-15T08:31:11;-18247.22;;;0.65;100.00
60583;BME280;46415;47.536;19.066;2024-01-15T08:34:15;-18254.38;;;0.91;100.00
60583;BME280;46415;47.536;19.066;2024-01-15T08:37:18;-18257.97;;;1.04;100.00
60583;BME280;46415;47.536;19.066;2024-01-15T08:40:22;-18262.66;;;1.21;100.00
60583;BME280;46415;47.536;19.066;2024-01-15T08:43:24;-18264.44;;;1.28;100.00
60583;BME280;46415;47.536;19.066;2024-01-15T08:46:27;-18268.72;;;1.44;100.00
60583;BME280;46415;47.536;19.066;2024-01-15T08:49:30;-18267.88;;;1.41;100.00
60583;BME280;46415;47.536;19.066;2024-01-15T08:52:33;-18270.91;;;1.52;99.94
60583;BME280;46415;47.536;19.066;2024-01-15T08:55:36;-18274.09;;;1.63;100.00
60583;BME280;46415;47.536;19.066;2024-01-15T08:58:40;-18277.69;;;1.77;98.42
60583;BME280;46415;47.536;19.066;2024-01-15T09:01:42;-18279.75;;;1.84;97.71
60583;BME280;46415;47.536;19.066;2024-01-15T09:04:46;-18279.88;;;1.85;97.15
60583;BME280;46415;47.536;19.066;2024-01-15T09:07:49;-18283.59;;;1.98;96.66
60583;BME280;46415;47.536;19.066;2024-01-15T09:10:54;-18287.31;;;2.12;95.67
60583;BME280;46415;47.536;19.066;2024-01-15T09:13:57;-18289.25;;;2.19;93.83
60583;BME280;46415;47.536;19.066;2024-01-15T09:17:00;-18289.94;;;2.22;92.42
60583;BME280;46415;47.536;19.066;2024-01-15T09:20:03;-18291.31;;;2.27;91.20
60583;BME280;46415;47.536;19.066;2024-01-15T09:23:08;-18298.62;;;2.54;90.69
60583;BME280;46415;47.536;19.066;2024-01-15T09:26:11;-18296.69;;;2.46;90.84
60583;BME280;46415;47.536;19.066;2024-01-15T09:29:14;-18297.94;;;2.51;88.66
60583;BME280;46415;47.536;19.066;2024-01-15T09:32:20;-18304.53;;;2.75;88.97
60583;BME280;46415;47.536;19.066;2024-01-15T09:35:23;-18309.09;;;2.92;87.50
60583;BME280;46415;47.536;19.066;2024-01-15T09:38:26;-18307.16;;;2.85;85.99
60583;BME280;46415;47.536;19.066;2024-01-15T09:41:29;-18307.28;;;2.85;86.36
60583;BME280;46415;47.536;19.066;2024-01-15T09:44:32;-18310.47;;;2.97;85.23
60583;BME280;46415;47.536;19.066;2024-01-15T09:47:36;-18315.97;;;3.17;84.43
60583;BME280;46415;47.536;19.066;2024-01-15T09:50:45;-18317.06;;;3.21;83.29
60583;BME280;46415;47.536;19.066;2024-01-15T09:53:50;-18319.97;;;3.32;84.28
60583;BME280;46415;47.536;19.066;2024-01-15T09:56:54;-18322.44;;;3.41;82.57
60583;BME280;46415;47.536;19.066;2024-01-15T09:59:59;-18322.28;;;3.41;80.69
60583;BME280;46415;47.536;19.066;2024-01-15T10:03:07;-18319.53;;;3.31;80.51
60583;BME280;46415;47.536;19.066;2024-01-15T10:06:11;-18320.66;;;3.35;80.30
60583;BME280;46415;47.536;19.066;2024-01-15T10:09:21;-18323.25;;;3.44;81.17
60583;BME280;46415;47.536;19.066;2024-01-15T10:12:24;-18323.00;;;3.43;77.69
60583;BME280;46415;47.536;19.066;2024-01-15T10:15:34;-18323.00;;;3.43;77.81
60583;BME280;46415;47.536;19.066;2024-01-15T10:18:37;-18326.84;;;3.57;78.01
60583;BME280;46415;47.536;19.066;2024-01-15T10:21:42;-18330.00;;;3.69;76.80
60583;BME280;46415;47.536;19.066;2024-01-15T10:24:45;-18333.19;;;3.81;75.30
60583;BME280;46415;47.536;19.066;2024-01-15T10:28:01;-18330.69;;;3.72;74.79
60583;BME280;46415;47.536;19.066;2024-01-15T10:31:05;-18332.22;;;3.77;74.76
60583;BME280;46415;47.536;19.066;2024-01-15T10:34:12;-18332.91;;;3.80;74.29
60583;BME280;46415;47.536;19.066;2024-01-15T10:37:15;-18329.03;;;3.65;73.85
60583;BME280;46415;47.536;19.066;2024-01-15T10:40:19;-18332.63;;;3.79;74.09
60583;BME280;46415;47.536;19.066;2024-01-15T10:43:24;-18332.63;;;3.79;73.74
60583;BME280;46415;47.536;19.066;2024-01-15T10:46:32;-18335.66;;;3.90;73.77
60583;BME280;46415;47.536;19.066;2024-01-15T10:49:36;-18331.94;;;3.76;74.37
60583;BME280;46415;47.536;19.066;2024-01-15T10:52:40;-18332.34;;;3.78;75.04
60583;BME280;46415;47.536;19.066;2024-01-15T10:55:44;-18333.59;;;3.82;74.79
60583;BME280;46415;47.536;19.066;2024-01-15T10:58:50;-18337.56;;;3.97;74.39
60583;BME280;46415;47.536;19.066;2024-01-15T11:01:53;-18342.53;;;4.15;73.63
60583;BME280;46415;47.536;19.066;2024-01-15T11:04:59;-18344.03;;;4.21;73.84
60583;BME280;46415;47.536;19.066;2024-01-15T11:08:01;-18345.97;;;4.28;73.41
60583;BME280;46415;47.536;19.066;2024-01-15T11:11:04;-18350.94;;;4.46;72.96
60583;BME280;46415;47.536;19.066;2024-01-15T11:14:07;-18350.09;;;4.43;72.76
60583;BME280;46415;47.536;19.066;2024-01-15T11:17:11;-18355.75;;;4.64;72.93
60583;BME280;46415;47.536;19.066;2024-01-15T11:20:15;-18353.53;;;4.56;71.94
60583;BME280;46415;47.536;19.066;2024-01-15T11:23:44;-18357.38;;;4.70;72.40
60583;BME280;46415;47.536;19.066;2024-01-15T11:26:55;-18360.28;;;4.80;70.78
60583;BME280;46415;47.536;19.066;2024-01-15T11:30:03;-18360.28;;;4.80;71.15
60583;BME280;46415;47.536;19.066;2024-01-15T11:33:33;-18360.81;;;4.82;70.66
60583;BME280;46415;47.536;19.066;2024-01-15T11:39:54;-18366.03;;;5.02;70.06
60583;BME280;46415;47.536;19.066;2024-01-15T11:42:57;-18366.59;;;5.04;70.41
60583;BME280;46415;47.536;19.066;2024-01-15T11:46:02;-18364.81;;;4.97;69.42
60583;BME280;46415;47.536;19.066;2024-01-15T11:49:09;-18367.84;;;5.08;69.15
60583;BME280;46415;47.536;19.066;2024-01-15T11:52:18;-18362.59;;;4.89;69.85
60583;BME280;46415;47.536;19.066;2024-01-15T11:58:34;-18364.25;;;4.95;70.00
60583;BME280;46415;47.536;19.066;2024-01-15T12:01:38;-18361.78;;;4.86;70.19
60583;BME280;46415;47.536;19.066;2024-01-15T12:04:42;-18361.94;;;4.86;70.31
60583;BME280;46415;47.536;19.066;2024-01-15T12:07:46;-18365.09;;;4.98;69.81
60583;BME280;46415;47.536;19.066;2024-01-15T12:10:53;-18366.31;;;5.03;69.43
60583;BME280;46415;47.536;19.066;2024-01-15T12:13:56;-18361.09;;;4.83;68.69
60583;BME280;46415;47.536;19.066;2024-01-15T12:17:00;-18360.00;;;4.79;68.52
60583;BME280;46415;47.536;19.066;2024-01-15T12:20:07;-18359.03;;;4.76;68.44
60583;BME280;46415;47.536;19.066;2024-01-15T12:23:10;-18358.75;;;4.75;68.46
60583;BME280;46415;47.536;19.066;2024-01-15T12:26:14;-18356.00;;;4.65;68.93
60583;BME280;46415;47.536;19.066;2024-01-15T12:29:18;-18355.75;;;4.64;68.89
60583;BME280;46415;47.536;19.066;2024-01-15T12:32:20;-18354.78;;;4.60;69.49
60583;BME280;46415;47.536;19.066;2024-01-15T12:35:25;-18354.38;;;4.59;69.45
60583;BME280;46415;47.536;19.066;2024-01-15T12:38:31;-18358.50;;;4.74;69.81
60583;BME280;46415;47.536;19.066;2024-01-15T12:41:34;-18356.56;;;4.67;70.23
60583;BME280;46415;47.536;19.066;2024-01-15T12:44:39;-18356.16;;;4.65;70.26
60583;BME280;46415;47.536;19.066;2024-01-15T12:47:42;-18360.81;;;4.82;69.37
60583;BME280;46415;47.536;19.066;2024-01-15T12:50:45;-18362.06;;;4.87;69.94
60583;BME280;46415;47.536;19.066;2024-01-15T12:53:48;-18361.94;;;4.86;69.14
60583;BME280;46415;47.536;19.066;2024-01-15T12:56:52;-18363.44;;;4.92;69.02
60583;BME280;46415;47.536;19.066;2024-01-15T12:59:55;-18360.81;;;4.82;69.12
60583;BME280;46415;47.536;19.066;2024-01-15T13:02:58;-18361.22;;;4.84;69.41
60583;BME280;46415;47.536;19.066;2024-01-15T13:06:03;-18359.31;;;4.77;69.73
60583;BME280;46415;47.536;19.066;2024-01-15T13:09:06;-18363.84;;;4.93;69.51
60583;BME280;46415;47.536;19.066;2024-01-15T13:12:09;-18379.94;;;5.53;66.86
60583;BME280;46415;47.536;19.066;2024-01-15T13:15:14;-18387.34;;;5.80;64.41
60583;BME280;46415;47.536;19.066;2024-01-15T13:18:17;-18415.94;;;6.85;61.94
60583;BME280;46415;47.536;19.066;2024-01-15T13:21:21;-18504.81;;;10.13;50.43
60583;BME280;46415;47.536;19.066;2024-01-15T13:24:24;-18474.25;;;9.00;52.01
60583;BME280;46415;47.536;19.066;2024-01-15T13:27:27;-18458.62;;;8.43;53.87
60583;BME280;46415;47.536;19.066;2024-01-15T13:30:31;-18438.19;;;7.67;56.23
60583;BME280;46415;47.536;19.066;2024-01-15T13:33:34;-18409.63;;;6.62;60.10
60583;BME280;46415;47.536;19.066;2024-01-15T13:36:37;-18391.50;;;5.95;63.40
60583;BME280;46415;47.536;19.066;2024-01-15T13:39:41;-18380.22;;;5.54;64.90
60583;BME280;46415;47.536;19.066;2024-01-15T13:42:45;-18367.41;;;5.07;66.57
60583;BME280;46415;47.536;19.066;2024-01-15T13:45:48;-18364.25;;;4.95;68.17
60583;BME280;46415;47.536;19.066;2024-01-15T13:48:52;-18361.50;;;4.85;68.10
60583;BME280;46415;47.536;19.066;2024-01-15T13:51:56;-18362.59;;;4.89;69.08
60583;BME280;46415;47.536;19.066;2024-01-15T13:54:59;-18358.75;;;4.75;68.50
60583;BME280;46415;47.536;19.066;2024-01-15T13:58:04;-18355.75;;;4.64;69.66
60583;BME280;46415;47.536;19.066;2024-01-15T14:01:09;-18351.59;;;4.48;70.57
60583;BME280;46415;47.536;19.066;2024-01-15T14:04:13;-18354.63;;;4.60;70.13
60583;BME280;46415;47.536;19.066;2024-01-15T14:07:16;-18354.38;;;4.59;70.83
60583;BME280;46415;47.536;19.066;2024-01-15T14:10:19;-18351.19;;;4.47;71.45
60583;BME280;46415;47.536;19.066;2024-01-15T14:13:23;-18349.97;;;4.42;72.19
60583;BME280;46415;47.536;19.066;2024-01-15T14:16:26;-18345.84;;;4.27;72.54
60583;BME280;46415;47.536;19.066;2024-01-15T14:19:28;-18346.37;;;4.29;73.22
60583;BME280;46415;47.536;19.066;2024-01-15T14:22:32;-18345.16;;;4.25;73.42
60583;BME280;46415;47.536;19.066;2024-01-15T14:25:35;-18348.03;;;4.35;73.47
60583;BME280;46415;47.536;19.066;2024-01-15T14:28:39;-18346.94;;;4.31;72.71
60583;BME280;46415;47.536;19.066;2024-01-15T14:31:41;-18341.69;;;4.12;74.15
60583;BME280;46415;47.536;19.066;2024-01-15T14:34:45;-18338.13;;;3.99;75.58
60583;BME280;46415;47.536;19.066;2024-01-15T14:37:47;-18336.62;;;3.93;75.78
60583;BME280;46415;47.536;19.066;2024-01-15T14:40:51;-18334.13;;;3.84;76.47
60583;BME280;46415;47.536;19.066;2024-01-15T14:43:54;-18329.59;;;3.67;77.83
60583;BME280;46415;47.536;19.066;2024-01-15T14:46:57;-18329.19;;;3.66;78.28
60583;BME280;46415;47.536;19.066;2024-01-15T14:50:01;-18328.78;;;3.64;78.26
60583;BME280;46415;47.536;19.066;2024-01-15T14:53:04;-18329.19;;;3.66;78.56
60583;BME280;46415;47.536;19.066;2024-01-15T14:56:07;-18327.25;;;3.59;79.00
60583;BME280;46415;47.536;19.066;2024-01-15T14:59:10;-18327.53;;;3.60;78.30
60583;BME280;46415;47.536;19.066;2024-01-15T15:02:13;-18328.63;;;3.64;78.42
60583;BME280;46415;47.536;19.066;2024-01-15T15:05:17;-18330.00;;;3.69;78.09
60583;BME280;46415;47.536;19.066;2024-01-15T15:08:20;-18327.94;;;3.61;78.11
60583;BME280;46415;47.536;19.066;2024-01-15T15:11:23;-18327.13;;;3.58;78.46
60583;BME280;46415;47.536;19.066;2024-01-15T15:14:26;-18327.66;;;3.60;78.25
60583;BME280;46415;47.536;19.066;2024-01-15T15:17:29;-18327.38;;;3.59;77.57
60583;BME280;46415;47.536;19.066;2024-01-15T15:20:32;-18324.63;;;3.49;78.09
60583;BME280;46415;47.536;19.066;2024-01-15T15:23:35;-18323.94;;;3.47;77.75
60583;BME280;46415;47.536;19.066;2024-01-15T15:26:38;-18322.72;;;3.42;77.63
60583;BME280;46415;47.536;19.066;2024-01-15T15:29:41;-18321.47;;;3.38;78.08
60583;BME280;46415;47.536;19.066;2024-01-15T15:32:44;-18319.28;;;3.29;78.41
60583;BME280;46415;47.536;19.066;2024-01-15T15:35:47;-18319.69;;;3.31;78.43
60583;BME280;46415;47.536;19.066;2024-01-15T15:38:50;-18316.78;;;3.20;79.09
60583;BME280;46415;47.536;19.066;2024-01-15T15:41:55;-18316.38;;;3.19;78.58
60583;BME280;46415;47.536;19.066;2024-01-15T15:44:59;-18313.62;;;3.09;79.71
60583;BME280;46415;47.536;19.066;2024-01-15T15:48:05;-18314.44;;;3.12;79.47
60583;BME280;46415;47.536;19.066;2024-01-15T15:51:08;-18315.56;;;3.16;78.88